Terminal Aerodrome Forecast
Issued by NWS

Home | Current Version | Previous Version | Text Only | Print | Product List | Glossary On
Versions: 1 2 3 4 5 6 7 8 9 10 11 12 13 14 15 16 17 18 19 20 21 22 23 24 25
000
FTUS41 KOKX 271922 AAA
TAFHPN
TAF AMD
KHPN 271922Z 2719/2818 17010G17KT P6SM FEW020 BKN040
      TEMPO 2723/2801 -TSRA SCT020 BKN040CB
     FM280100 19006KT P6SM SCT010 BKN040
     FM280400 21005KT P6SM SCT010 BKN040
     FM280700 VRB03KT 3SM BR BKN008
     FM281400 20007KT 5SM HZ SCT012 BKN200
     FM281600 22009KT P6SM FEW020 BKN040
      AMD NOT SKED=

USA.gov is the U.S. government's official web portal to all federal, state and local government web resources and services.